sensor_id;sensor_type;location;lat;lon;timestamp;pressure;altitude;pressure_sealevel;temperature;humidity
78932;BME280;68331;53.362;55.932;2024-01-15T00:01:45;101164.25;;;-18.68;67.37
78932;BME280;68331;53.362;55.932;2024-01-15T00:04:11;101168.22;;;-18.70;66.37
78932;BME280;68331;53.362;55.932;2024-01-15T00:06:37;101179.16;;;-18.78;66.91
78932;BME280;68331;53.362;55.932;2024-01-15T00:09:03;101176.00;;;-18.84;66.64
78932;BME280;68331;53.362;55.932;2024-01-15T00:11:29;101174.78;;;-18.88;66.99
78932;BME280;68331;53.362;55.932;2024-01-15T00:13:55;101189.56;;;-18.91;67.01
78932;BME280;68331;53.362;55.932;2024-01-15T00:16:21;101171.97;;;-18.91;66.86
78932;BME280;68331;53.362;55.932;2024-01-15T00:18:47;101187.75;;;-18.92;66.39
78932;BME280;68331;53.362;55.932;2024-01-15T00:21:12;101172.75;;;-18.99;66.64
78932;BME280;68331;53.362;55.932;2024-01-15T00:23:42;101183.72;;;-18.98;66.87
78932;BME280;68331;53.362;55.932;2024-01-15T00:26:09;101194.50;;;-18.99;66.80
78932;BME280;68331;53.362;55.932;2024-01-15T00:28:36;101167.09;;;-19.05;67.13
78932;BME280;68331;53.362;55.932;2024-01-15T00:31:20;101179.28;;;-19.01;67.01
78932;BME280;68331;53.362;55.932;2024-01-15T00:34:05;101169.34;;;-18.99;67.01
78932;BME280;68331;53.362;55.932;2024-01-15T00:36:31;101168.16;;;-19.03;67.34
78932;BME280;68331;53.362;55.932;2024-01-15T00:38:56;101186.53;;;-18.95;67.39
78932;BME280;68331;53.362;55.932;2024-01-15T00:41:41;101176.44;;;-18.88;66.99
78932;BME280;68331;53.362;55.932;2024-01-15T00:44:25;101177.69;;;-18.76;67.16
78932;BME280;68331;53.362;55.932;2024-01-15T00:46:51;101184.84;;;-18.63;66.53
78932;BME280;68331;53.362;55.932;2024-01-15T00:49:17;101184.53;;;-18.66;66.48
78932;BME280;68331;53.362;55.932;2024-01-15T00:51:43;101189.19;;;-18.62;67.10
78932;BME280;68331;53.362;55.932;2024-01-15T00:54:09;101171.56;;;-18.62;66.76
78932;BME280;68331;53.362;55.932;2024-01-15T00:56:54;101162.03;;;-18.73;66.19
78932;BME280;68331;53.362;55.932;2024-01-15T00:59:20;101170.03;;;-18.69;nan
78932;BME280;68331;53.362;55.932;2024-01-15T01:01:46;101172.69;;;-18.67;66.27
78932;BME280;68331;53.362;55.932;2024-01-15T01:04:13;101164.25;;;-18.68;nan
78932;BME280;68331;53.362;55.932;2024-01-15T01:06:39;101164.47;;;-18.82;66.33
78932;BME280;68331;53.362;55.932;2024-01-15T01:09:05;101156.03;;;-18.98;66.27
78932;BME280;68331;53.362;55.932;2024-01-15T01:11:31;101148.50;;;-18.98;66.89
78932;BME280;68331;53.362;55.932;2024-01-15T01:13:57;101158.97;;;-19.03;66.94
78932;BME280;68331;53.362;55.932;2024-01-15T01:16:23;101151.34;;;-18.95;66.75
78932;BME280;68331;53.362;55.932;2024-01-15T01:18:49;101153.81;;;-19.04;66.70
78932;BME280;68331;53.362;55.932;2024-01-15T01:23:59;101159.47;;;-19.14;66.46
78932;BME280;68331;53.362;55.932;2024-01-15T01:26:24;101157.34;;;-19.18;66.06
78932;BME280;68331;53.362;55.932;2024-01-15T01:28:50;101154.50;;;-19.21;67.00
78932;BME280;68331;53.362;55.932;2024-01-15T01:31:16;101157.84;;;-19.13;67.21
78932;BME280;68331;53.362;55.932;2024-01-15T01:33:42;101162.72;;;-19.15;66.69
78932;BME280;68331;53.362;55.932;2024-01-15T01:36:08;101173.00;;;-19.20;66.34
78932;BME280;68331;53.362;55.932;2024-01-15T01:38:36;101164.25;;;-19.24;66.52
78932;BME280;68331;53.362;55.932;2024-01-15T01:41:02;101173.81;;;-19.29;66.16
78932;BME280;68331;53.362;55.932;2024-01-15T01:43:29;101176.47;;;-19.43;66.12
78932;BME280;68331;53.362;55.932;2024-01-15T01:45:56;101188.31;;;-19.42;66.53
78932;BME280;68331;53.362;55.932;2024-01-15T01:48:24;101185.06;;;-19.41;66.45
78932;BME280;68331;53.362;55.932;2024-01-15T01:50:53;101179.56;;;-19.45;66.55
78932;BME280;68331;53.362;55.932;2024-01-15T01:53:20;101178.72;;;-19.53;66.76
78932;BME280;68331;53.362;55.932;2024-01-15T01:55:47;101184.72;;;-19.60;66.99
78932;BME280;68331;53.362;55.932;2024-01-15T01:58:14;101198.59;;;-19.63;66.83
78932;BME280;68331;53.362;55.932;2024-01-15T02:00:41;101195.63;;;-19.75;66.82
78932;BME280;68331;53.362;55.932;2024-01-15T02:03:27;101177.47;;;-19.88;66.93
78932;BME280;68331;53.362;55.932;2024-01-15T02:06:12;101172.56;;;-20.03;67.06
78932;BME280;68331;53.362;55.932;2024-01-15T02:08:38;101170.50;;;-20.14;67.03
78932;BME280;68331;53.362;55.932;2024-01-15T02:11:04;101173.94;;;-20.21;67.57
78932;BME280;68331;53.362;55.932;2024-01-15T02:13:30;101193.53;;;-20.25;67.54
78932;BME280;68331;53.362;55.932;2024-01-15T02:15:56;101201.41;;;-20.29;67.43
78932;BME280;68331;53.362;55.932;2024-01-15T02:18:22;101193.72;;;-20.31;67.63
78932;BME280;68331;53.362;55.932;2024-01-15T02:20:48;101148.06;;;-20.58;67.74
78932;BME280;68331;53.362;55.932;2024-01-15T02:23:15;101190.19;;;-20.40;67.52
78932;BME280;68331;53.362;55.932;2024-01-15T02:25:46;101192.03;;;-20.46;67.82
78932;BME280;68331;53.362;55.932;2024-01-15T02:28:17;101194.16;;;-20.42;67.87
78932;BME280;68331;53.362;55.932;2024-01-15T02:30:43;101195.97;;;-20.48;67.58
78932;BME280;68331;53.362;55.932;2024-01-15T02:33:10;101181.66;;;-20.49;67.95
78932;BME280;68331;53.362;55.932;2024-01-15T02:35:36;101183.28;;;-20.50;67.79
78932;BME280;68331;53.362;55.932;2024-01-15T02:38:04;101165.16;;;-20.70;67.73
78932;BME280;68331;53.362;55.932;2024-01-15T02:43:14;101185.78;;;-20.50;67.57
78932;BME280;68331;53.362;55.932;2024-01-15T02:45:40;101186.56;;;-20.58;67.56
78932;BME280;68331;53.362;55.932;2024-01-15T02:48:06;101199.44;;;-20.55;67.40
78932;BME280;68331;53.362;55.932;2024-01-15T02:50:32;101201.09;;;-20.62;67.67
78932;BME280;68331;53.362;55.932;2024-01-15T02:52:58;101208.09;;;-20.60;67.79
78932;BME280;68331;53.362;55.932;2024-01-15T02:55:23;101230.28;;;-20.56;67.65
78932;BME280;68331;53.362;55.932;2024-01-15T02:58:08;101225.25;;;-20.56;68.07
78932;BME280;68331;53.362;55.932;2024-01-15T03:00:34;101235.50;;;-20.61;67.40
78932;BME280;68331;53.362;55.932;2024-01-15T03:03:00;101246.28;;;-20.77;66.97
78932;BME280;68331;53.362;55.932;2024-01-15T03:05:26;101247.97;;;-20.92;67.09
78932;BME280;68331;53.362;55.932;2024-01-15T03:07:52;101249.75;;;-20.91;67.40
78932;BME280;68331;53.362;55.932;2024-01-15T03:10:18;101264.78;;;-20.91;67.98
78932;BME280;68331;53.362;55.932;2024-01-15T03:12:44;101246.91;;;-20.94;67.59
78932;BME280;68331;53.362;55.932;2024-01-15T03:15:10;101258.53;;;-20.94;67.25
78932;BME280;68331;53.362;55.932;2024-01-15T03:17:35;101246.19;;;-21.00;67.65
78932;BME280;68331;53.362;55.932;2024-01-15T03:20:01;101259.47;;;-21.01;67.27
78932;BME280;68331;53.362;55.932;2024-01-15T03:22:29;101277.03;;;-21.08;66.82
78932;BME280;68331;53.362;55.932;2024-01-15T03:24:55;101283.47;;;-21.10;67.89
78932;BME280;68331;53.362;55.932;2024-01-15T03:27:21;101275.41;;;-21.22;67.69
78932;BME280;68331;53.362;55.932;2024-01-15T03:29:47;101284.00;;;-21.20;67.70
78932;BME280;68331;53.362;55.932;2024-01-15T03:32:31;101284.38;;;-21.24;67.70
78932;BME280;68331;53.362;55.932;2024-01-15T03:34:57;101284.19;;;-21.18;67.55
78932;BME280;68331;53.362;55.932;2024-01-15T03:37:23;101282.06;;;-21.29;67.79
78932;BME280;68331;53.362;55.932;2024-01-15T03:39:49;101287.78;;;-21.23;67.59
78932;BME280;68331;53.362;55.932;2024-01-15T03:42:14;101288.31;;;-21.26;67.42
78932;BME280;68331;53.362;55.932;2024-01-15T03:44:41;101280.78;;;-21.26;67.44
78932;BME280;68331;53.362;55.932;2024-01-15T03:47:07;101291.19;;;-21.23;67.56
78932;BME280;68331;53.362;55.932;2024-01-15T03:49:33;101294.94;;;-21.26;67.48
78932;BME280;68331;53.362;55.932;2024-01-15T03:51:58;101294.41;;;-21.24;67.35
78932;BME280;68331;53.362;55.932;2024-01-15T03:54:24;101268.50;;;-21.46;67.13
78932;BME280;68331;53.362;55.932;2024-01-15T03:56:51;101289.78;;;-21.42;67.13
78932;BME280;68331;53.362;55.932;2024-01-15T03:59:17;101293.38;;;-21.40;67.53
78932;BME280;68331;53.362;55.932;2024-01-15T04:01:48;101308.56;;;-21.39;67.73
78932;BME280;68331;53.362;55.932;2024-01-15T04:04:15;101302.31;;;-21.42;66.91
78932;BME280;68331;53.362;55.932;2024-01-15T04:07:18;101321.63;;;-21.41;67.46
78932;BME280;68331;53.362;55.932;2024-01-15T04:09:44;101318.03;;;-21.50;66.97
78932;BME280;68331;53.362;55.932;2024-01-15T04:12:10;101320.38;;;-21.52;67.38
78932;BME280;68331;53.362;55.932;2024-01-15T04:14:36;101292.47;;;-21.55;66.91
78932;BME280;68331;53.362;55.932;2024-01-15T04:17:01;101320.03;;;-21.55;67.09
78932;BME280;68331;53.362;55.932;2024-01-15T04:19:46;101322.16;;;-21.51;66.82
78932;BME280;68331;53.362;55.932;2024-01-15T04:22:13;101317.88;;;-21.52;67.02
78932;BME280;68331;53.362;55.932;2024-01-15T04:24:39;101316.28;;;-21.51;67.15
78932;BME280;68331;53.362;55.932;2024-01-15T04:27:24;101330.25;;;-21.46;67.25
78932;BME280;68331;53.362;55.932;2024-01-15T04:29:50;101322.00;;;-21.52;67.00
78932;BME280;68331;53.362;55.932;2024-01-15T04:32:16;101326.47;;;-21.43;67.32
78932;BME280;68331;53.362;55.932;2024-01-15T04:34:42;101341.28;;;-21.30;67.33
78932;BME280;68331;53.362;55.932;2024-01-15T04:37:08;101288.91;;;-21.43;67.13
78932;BME280;68331;53.362;55.932;2024-01-15T04:39:34;101345.94;;;-21.04;66.67
78932;BME280;68331;53.362;55.932;2024-01-15T04:41:59;101355.78;;;-20.99;66.62
78932;BME280;68331;53.362;55.932;2024-01-15T04:44:25;101355.94;;;-20.90;66.32
78932;BME280;68331;53.362;55.932;2024-01-15T04:46:51;101350.91;;;-20.76;65.92
78932;BME280;68331;53.362;55.932;2024-01-15T04:49:17;101345.88;;;-20.69;65.47
78932;BME280;68331;53.362;55.932;2024-01-15T04:51:43;101337.81;;;-20.66;65.69
78932;BME280;68331;53.362;55.932;2024-01-15T04:54:09;101326.88;;;-20.74;65.40
78932;BME280;68331;53.362;55.932;2024-01-15T04:56:35;101332.47;;;-20.76;65.40
78932;BME280;68331;53.362;55.932;2024-01-15T04:59:00;101332.09;;;-20.72;65.57
78932;BME280;68331;53.362;55.932;2024-01-15T05:01:31;101318.13;;;-20.70;65.41
78932;BME280;68331;53.362;55.932;2024-01-15T05:03:57;101329.94;;;-20.69;65.18
78932;BME280;68331;53.362;55.932;2024-01-15T05:06:23;101314.19;;;-20.75;65.24
78932;BME280;68331;53.362;55.932;2024-01-15T05:08:49;101295.22;;;-20.87;65.21
78932;BME280;68331;53.362;55.932;2024-01-15T05:11:33;101323.47;;;-20.60;65.15
78932;BME280;68331;53.362;55.932;2024-01-15T05:13:59;101313.53;;;-20.44;65.00
78932;BME280;68331;53.362;55.932;2024-01-15T05:16:25;101327.78;;;-20.22;64.89
78932;BME280;68331;53.362;55.932;2024-01-15T05:19:09;101335.16;;;-19.93;63.77
78932;BME280;68331;53.362;55.932;2024-01-15T05:21:35;101328.41;;;-19.78;63.51
78932;BME280;68331;53.362;55.932;2024-01-15T05:24:01;101330.16;;;-19.47;62.65
78932;BME280;68331;53.362;55.932;2024-01-15T05:26:45;101318.44;;;-19.39;62.10
78932;BME280;68331;53.362;55.932;2024-01-15T05:29:11;101316.78;;;-18.61;61.55
78932;BME280;68331;53.362;55.932;2024-01-15T05:31:37;101338.28;;;-17.60;58.96
78932;BME280;68331;53.362;55.932;2024-01-15T05:34:03;101308.84;;;-17.19;57.62
78932;BME280;68331;53.362;55.932;2024-01-15T05:36:29;101342.81;;;-16.91;56.49
78932;BME280;68331;53.362;55.932;2024-01-15T05:38:54;101347.25;;;-16.88;56.75
78932;BME280;68331;53.362;55.932;2024-01-15T05:41:20;101320.25;;;-17.22;56.71
78932;BME280;68331;53.362;55.932;2024-01-15T05:43:46;101335.34;;;-17.55;57.46
78932;BME280;68331;53.362;55.932;2024-01-15T05:46:31;101325.25;;;-17.89;58.13
78932;BME280;68331;53.362;55.932;2024-01-15T05:48:56;101349.06;;;-17.69;58.60
78932;BME280;68331;53.362;55.932;2024-01-15T05:51:22;101350.16;;;-17.59;58.25
78932;BME280;68331;53.362;55.932;2024-01-15T05:54:07;101354.31;;;-17.34;58.39
78932;BME280;68331;53.362;55.932;2024-01-15T05:56:33;101371.44;;;-17.48;58.08
78932;BME280;68331;53.362;55.932;2024-01-15T05:58:58;101363.53;;;-17.75;58.33
78932;BME280;68331;53.362;55.932;2024-01-15T06:01:24;101367.16;;;-17.65;58.41
78932;BME280;68331;53.362;55.932;2024-01-15T06:03:50;101362.19;;;-17.56;57.95
78932;BME280;68331;53.362;55.932;2024-01-15T06:06:34;101348.00;;;-17.47;57.22
78932;BME280;68331;53.362;55.932;2024-01-15T06:09:20;101365.81;;;-17.70;57.61
78932;BME280;68331;53.362;55.932;2024-01-15T06:12:07;101379.69;;;-17.82;58.18
78932;BME280;68331;53.362;55.932;2024-01-15T06:14:33;101365.06;;;-17.93;58.03
78932;BME280;68331;53.362;55.932;2024-01-15T06:16:59;101376.41;;;-18.05;58.39
78932;BME280;68331;53.362;55.932;2024-01-15T06:19:25;101353.72;;;-18.05;57.44
78932;BME280;68331;53.362;55.932;2024-01-15T06:22:09;101382.00;;;-18.08;58.32
78932;BME280;68331;53.362;55.932;2024-01-15T06:24:35;101366.31;;;-18.21;58.26
78932;BME280;68331;53.362;55.932;2024-01-15T06:27:01;101366.22;;;-17.98;58.27
78932;BME280;68331;53.362;55.932;2024-01-15T06:29:27;101354.72;;;-17.63;57.66
78932;BME280;68331;53.362;55.932;2024-01-15T06:31:53;101316.63;;;-17.66;56.89
78932;BME280;68331;53.362;55.932;2024-01-15T06:34:19;101353.63;;;-17.49;57.20
78932;BME280;68331;53.362;55.932;2024-01-15T06:36:45;101357.53;;;-17.44;56.62
78932;BME280;68331;53.362;55.932;2024-01-15T06:39:11;101358.78;;;-17.56;56.86
78932;BME280;68331;53.362;55.932;2024-01-15T06:41:37;101365.53;;;-17.64;56.83
78932;BME280;68331;53.362;55.932;2024-01-15T06:44:30;101373.47;;;-17.03;56.77
78932;BME280;68331;53.362;55.932;2024-01-15T06:46:56;101366.94;;;-16.42;55.10
78932;BME280;68331;53.362;55.932;2024-01-15T06:49:26;101350.41;;;-15.52;53.64
78932;BME280;68331;53.362;55.932;2024-01-15T06:51:51;101348.72;;;-14.80;51.59
78932;BME280;68331;53.362;55.932;2024-01-15T06:54:36;101350.00;;;-14.75;49.48
78932;BME280;68331;53.362;55.932;2024-01-15T06:57:02;101350.94;;;-15.28;50.98
78932;BME280;68331;53.362;55.932;2024-01-15T06:59:46;101367.06;;;-14.91;50.94
78932;BME280;68331;53.362;55.932;2024-01-15T07:02:13;101367.19;;;-14.90;50.87
78932;BME280;68331;53.362;55.932;2024-01-15T07:04:38;101344.41;;;-15.26;51.51
78932;BME280;68331;53.362;55.932;2024-01-15T07:07:04;101370.94;;;-15.40;51.34
78932;BME280;68331;53.362;55.932;2024-01-15T07:09:34;101357.06;;;-15.35;52.00
78932;BME280;68331;53.362;55.932;2024-01-15T07:12:00;101340.53;;;-15.23;51.10
78932;BME280;68331;53.362;55.932;2024-01-15T07:14:26;101368.16;;;-15.07;51.14
78932;BME280;68331;53.362;55.932;2024-01-15T07:16:52;101362.31;;;-15.42;51.81
78932;BME280;68331;53.362;55.932;2024-01-15T07:19:17;101358.38;;;-16.09;53.31
78932;BME280;68331;53.362;55.932;2024-01-15T07:22:02;101376.00;;;-16.44;54.32
78932;BME280;68331;53.362;55.932;2024-01-15T07:24:28;101353.03;;;-16.72;54.22
78932;BME280;68331;53.362;55.932;2024-01-15T07:26:54;101367.69;;;-16.34;54.26
78932;BME280;68331;53.362;55.932;2024-01-15T07:29:20;101369.94;;;-16.29;53.94
78932;BME280;68331;53.362;55.932;2024-01-15T07:31:50;101366.16;;;-16.50;54.09
78932;BME280;68331;53.362;55.932;2024-01-15T07:34:17;101374.09;;;-16.38;54.45
78932;BME280;68331;53.362;55.932;2024-01-15T07:36:46;101368.47;;;-15.92;53.29
78932;BME280;68331;53.362;55.932;2024-01-15T07:39:12;101359.88;;;-15.32;52.34
78932;BME280;68331;53.362;55.932;2024-01-15T07:41:39;101360.41;;;-14.63;51.36
78932;BME280;68331;53.362;55.932;2024-01-15T07:44:06;101366.84;;;-14.75;51.13
78932;BME280;68331;53.362;55.932;2024-01-15T07:46:32;101347.63;;;-14.73;51.00
78932;BME280;68331;53.362;55.932;2024-01-15T07:48:58;101358.78;;;-14.99;50.67
78932;BME280;68331;53.362;55.932;2024-01-15T07:51:24;101353.25;;;-15.57;51.88
78932;BME280;68331;53.362;55.932;2024-01-15T07:54:09;101347.22;;;-16.11;52.65
78932;BME280;68331;53.362;55.932;2024-01-15T07:57:00;101382.19;;;-16.67;53.64
78932;BME280;68331;53.362;55.932;2024-01-15T07:59:28;101366.03;;;-17.02;55.31
78932;BME280;68331;53.362;55.932;2024-01-15T08:01:54;101346.75;;;-17.01;55.78
78932;BME280;68331;53.362;55.932;2024-01-15T08:04:20;101369.06;;;-16.89;55.81
78932;BME280;68331;53.362;55.932;2024-01-15T08:06:47;101371.63;;;-16.80;56.30
78932;BME280;68331;53.362;55.932;2024-01-15T08:09:13;101376.81;;;-16.78;56.13
78932;BME280;68331;53.362;55.932;2024-01-15T08:11:40;101382.25;;;-17.00;55.62
78932;BME280;68331;53.362;55.932;2024-01-15T08:14:08;101385.34;;;-17.02;56.49
78932;BME280;68331;53.362;55.932;2024-01-15T08:16:34;101376.59;;;-16.97;56.79
78932;BME280;68331;53.362;55.932;2024-01-15T08:19:00;101387.63;;;-16.88;56.43
78932;BME280;68331;53.362;55.932;2024-01-15T08:21:26;101389.13;;;-16.81;56.53
78932;BME280;68331;53.362;55.932;2024-01-15T08:23:59;101389.72;;;-16.84;56.53
78932;BME280;68331;53.362;55.932;2024-01-15T08:26:25;101385.88;;;-16.80;56.59
78932;BME280;68331;53.362;55.932;2024-01-15T08:28:51;101374.09;;;-16.89;56.41
78932;BME280;68331;53.362;55.932;2024-01-15T08:31:17;101378.53;;;-16.95;57.07
78932;BME280;68331;53.362;55.932;2024-01-15T08:33:43;101388.19;;;-16.99;57.08
78932;BME280;68331;53.362;55.932;2024-01-15T08:36:09;101381.88;;;-17.12;56.87
78932;BME280;68331;53.362;55.932;2024-01-15T08:38:35;101384.22;;;-17.13;57.31
78932;BME280;68331;53.362;55.932;2024-01-15T08:41:01;101356.84;;;-17.34;56.92
78932;BME280;68331;53.362;55.932;2024-01-15T08:43:27;101388.28;;;-17.06;57.01
78932;BME280;68331;53.362;55.932;2024-01-15T08:46:11;101385.97;;;-16.96;57.40
78932;BME280;68331;53.362;55.932;2024-01-15T08:48:37;101366.09;;;-16.93;56.91
78932;BME280;68331;53.362;55.932;2024-01-15T08:51:03;101362.19;;;-16.98;57.40
78932;BME280;68331;53.362;55.932;2024-01-15T08:53:29;101377.06;;;-16.93;57.05
78932;BME280;68331;53.362;55.932;2024-01-15T08:55:55;101390.69;;;-16.99;57.59
78932;BME280;68331;53.362;55.932;2024-01-15T08:58:22;101387.03;;;-17.19;57.33
78932;BME280;68331;53.362;55.932;2024-01-15T09:00:48;101354.78;;;-17.30;57.79
78932;BME280;68331;53.362;55.932;2024-01-15T09:03:14;101366.34;;;-16.99;58.24
78932;BME280;68331;53.362;55.932;2024-01-15T09:05:40;101379.78;;;-16.74;57.28
78932;BME280;68331;53.362;55.932;2024-01-15T09:08:06;101390.06;;;-16.63;57.24
78932;BME280;68331;53.362;55.932;2024-01-15T09:10:32;101355.59;;;-16.80;56.89
78932;BME280;68331;53.362;55.932;2024-01-15T09:12:58;101365.25;;;-16.59;56.71
78932;BME280;68331;53.362;55.932;2024-01-15T09:15:23;101366.38;;;-16.39;57.00
78932;BME280;68331;53.362;55.932;2024-01-15T09:17:49;101373.41;;;-16.11;56.03
78932;BME280;68331;53.362;55.932;2024-01-15T09:20:15;101369.22;;;-16.10;55.82
78932;BME280;68331;53.362;55.932;2024-01-15T09:22:41;101378.69;;;-16.34;55.77
78932;BME280;68331;53.362;55.932;2024-01-15T09:25:08;101388.00;;;-16.50;56.39
78932;BME280;68331;53.362;55.932;2024-01-15T09:27:37;101374.06;;;-16.55;56.91
78932;BME280;68331;53.362;55.932;2024-01-15T09:30:04;101376.59;;;-16.55;57.44
78932;BME280;68331;53.362;55.932;2024-01-15T09:32:31;101370.91;;;-16.61;57.43
78932;BME280;68331;53.362;55.932;2024-01-15T09:34:58;101375.63;;;-16.82;57.44
78932;BME280;68331;53.362;55.932;2024-01-15T09:37:24;101380.03;;;-16.97;58.31
78932;BME280;68331;53.362;55.932;2024-01-15T09:40:12;101360.03;;;-16.86;59.13
78932;BME280;68331;53.362;55.932;2024-01-15T09:42:39;101351.09;;;-16.92;58.53
78932;BME280;68331;53.362;55.932;2024-01-15T09:45:06;101356.88;;;-16.93;58.08
78932;BME280;68331;53.362;55.932;2024-01-15T09:47:32;101341.19;;;-17.15;59.29
78932;BME280;68331;53.362;55.932;2024-01-15T09:49:58;101347.44;;;-17.11;59.02
78932;BME280;68331;53.362;55.932;2024-01-15T09:52:25;101349.72;;;-17.05;59.58
78932;BME280;68331;53.362;55.932;2024-01-15T09:54:51;101355.31;;;-17.08;58.83
78932;BME280;68331;53.362;55.932;2024-01-15T09:57:17;101345.91;;;-16.93;59.54
78932;BME280;68331;53.362;55.932;2024-01-15T09:59:44;101334.63;;;-16.88;59.48
78932;BME280;68331;53.362;55.932;2024-01-15T10:02:29;101351.03;;;-17.09;59.26
78932;BME280;68331;53.362;55.932;2024-01-15T10:04:56;101332.69;;;-17.24;59.54
78932;BME280;68331;53.362;55.932;2024-01-15T10:07:40;101336.09;;;-17.23;59.74
78932;BME280;68331;53.362;55.932;2024-01-15T10:10:07;101324.13;;;-17.17;59.79
78932;BME280;68331;53.362;55.932;2024-01-15T10:12:33;101332.16;;;-17.13;60.29
78932;BME280;68331;53.362;55.932;2024-01-15T10:15:01;101343.34;;;-17.02;59.79
78932;BME280;68331;53.362;55.932;2024-01-15T10:17:29;101342.00;;;-16.98;59.63
78932;BME280;68331;53.362;55.932;2024-01-15T10:20:15;101345.59;;;-16.96;59.95
78932;BME280;68331;53.362;55.932;2024-01-15T10:22:42;101349.94;;;-16.86;59.94
78932;BME280;68331;53.362;55.932;2024-01-15T10:25:15;101352.81;;;-16.75;60.08
78932;BME280;68331;53.362;55.932;2024-01-15T10:27:43;101345.19;;;-16.66;59.91
78932;BME280;68331;53.362;55.932;2024-01-15T10:30:10;101343.69;;;-16.73;59.92
78932;BME280;68331;53.362;55.932;2024-01-15T10:32:36;101324.06;;;-16.93;60.14
78932;BME280;68331;53.362;55.932;2024-01-15T10:35:03;101340.28;;;-16.91;59.90
78932;BME280;68331;53.362;55.932;2024-01-15T10:37:33;101358.22;;;-16.96;60.35
78932;BME280;68331;53.362;55.932;2024-01-15T10:40:02;101350.91;;;-17.02;60.27
78932;BME280;68331;53.362;55.932;2024-01-15T10:42:30;101352.69;;;-17.01;60.33
78932;BME280;68331;53.362;55.932;2024-01-15T10:44:56;101372.88;;;-17.01;60.26
78932;BME280;68331;53.362;55.932;2024-01-15T10:47:22;101363.78;;;-17.07;60.36
78932;BME280;68331;53.362;55.932;2024-01-15T10:49:49;101365.16;;;-17.02;61.20
78932;BME280;68331;53.362;55.932;2024-01-15T10:52:16;101350.53;;;-17.14;60.58
78932;BME280;68331;53.362;55.932;2024-01-15T10:54:43;101357.97;;;-17.15;61.08
78932;BME280;68331;53.362;55.932;2024-01-15T10:57:10;101371.97;;;-17.01;61.15
78932;BME280;68331;53.362;55.932;2024-01-15T10:59:55;101351.16;;;-17.07;61.27
78932;BME280;68331;53.362;55.932;2024-01-15T11:02:21;101386.53;;;-16.99;60.63
78932;BME280;68331;53.362;55.932;2024-01-15T11:04:48;101378.53;;;-17.03;61.45
78932;BME280;68331;53.362;55.932;2024-01-15T11:07:14;101385.97;;;-16.96;61.45
78932;BME280;68331;53.362;55.932;2024-01-15T11:09:40;101380.91;;;-16.96;61.77
78932;BME280;68331;53.362;55.932;2024-01-15T11:12:13;101382.69;;;-16.95;61.75
78932;BME280;68331;53.362;55.932;2024-01-15T11:14:46;101385.69;;;-16.91;61.71
78932;BME280;68331;53.362;55.932;2024-01-15T11:17:13;101372.28;;;-16.98;62.36
78932;BME280;68331;53.362;55.932;2024-01-15T11:22:08;101378.41;;;-16.96;62.12
78932;BME280;68331;53.362;55.932;2024-01-15T11:24:36;101364.97;;;-17.04;62.38
78932;BME280;68331;53.362;55.932;2024-01-15T11:27:02;101369.88;;;-17.05;62.49
78932;BME280;68331;53.362;55.932;2024-01-15T11:30:03;101386.69;;;-16.97;62.92
78932;BME280;68331;53.362;55.932;2024-01-15T11:32:33;101377.34;;;-16.98;63.97
78932;BME280;68331;53.362;55.932;2024-01-15T11:34:59;101362.50;;;-16.95;63.69
78932;BME280;68331;53.362;55.932;2024-01-15T11:40:37;101341.25;;;-17.06;64.06
78932;BME280;68331;53.362;55.932;2024-01-15T11:43:04;101355.09;;;-16.94;63.62
78932;BME280;68331;53.362;55.932;2024-01-15T11:45:31;101350.16;;;-17.01;64.11
78932;BME280;68331;53.362;55.932;2024-01-15T11:48:11;101353.56;;;-17.09;63.88
78932;BME280;68331;53.362;55.932;2024-01-15T11:50:42;101356.78;;;-17.10;63.95
78932;BME280;68331;53.362;55.932;2024-01-15T11:55:58;101366.13;;;-17.18;64.85
78932;BME280;68331;53.362;55.932;2024-01-15T11:58:24;101357.34;;;-17.21;64.95
78932;BME280;68331;53.362;55.932;2024-01-15T12:00:51;101345.94;;;-17.18;65.06
78932;BME280;68331;53.362;55.932;2024-01-15T12:03:23;101338.81;;;-17.22;65.07
78932;BME280;68331;53.362;55.932;2024-01-15T12:05:50;101324.88;;;-17.43;64.72
78932;BME280;68331;53.362;55.932;2024-01-15T12:08:21;101340.06;;;-17.34;65.44
78932;BME280;68331;53.362;55.932;2024-01-15T12:10:47;101339.19;;;-17.34;66.00
78932;BME280;68331;53.362;55.932;2024-01-15T12:13:14;101342.16;;;-17.30;65.79
78932;BME280;68331;53.362;55.932;2024-01-15T12:16:01;101341.84;;;-17.33;65.54
78932;BME280;68331;53.362;55.932;2024-01-15T12:18:29;101326.53;;;-17.43;65.67
78932;BME280;68331;53.362;55.932;2024-01-15T12:20:55;101328.72;;;-17.46;66.14
78932;BME280;68331;53.362;55.932;2024-01-15T12:23:21;101320.03;;;-17.41;66.11
78932;BME280;68331;53.362;55.932;2024-01-15T12:25:47;101323.13;;;-17.44;65.54
78932;BME280;68331;53.362;55.932;2024-01-15T12:28:15;101324.84;;;-17.51;66.68
78932;BME280;68331;53.362;55.932;2024-01-15T12:30:41;101328.72;;;-17.46;65.93
78932;BME280;68331;53.362;55.932;2024-01-15T12:33:08;101322.50;;;-17.50;66.62
78932;BME280;68331;53.362;55.932;2024-01-15T12:35:53;101329.63;;;-17.46;66.72
78932;BME280;68331;53.362;55.932;2024-01-15T12:38:19;101317.91;;;-17.45;66.59
78932;BME280;68331;53.362;55.932;2024-01-15T12:40:46;101312.13;;;-17.44;66.39
78932;BME280;68331;53.362;55.932;2024-01-15T12:43:12;101316.28;;;-17.45;66.51
78932;BME280;68331;53.362;55.932;2024-01-15T12:45:37;101295.00;;;-17.55;66.86
78932;BME280;68331;53.362;55.932;2024-01-15T12:48:04;101314.50;;;-17.46;66.38
78932;BME280;68331;53.362;55.932;2024-01-15T12:50:30;101310.81;;;-17.41;66.10
78932;BME280;68331;53.362;55.932;2024-01-15T12:52:58;101301.44;;;-17.50;66.35